createdAt,value
2019-01-29T00:01:23.203Z,1.77
2019-01-29T00:03:53.398Z,2.27
2019-01-29T00:06:22.265Z,1.93
2019-01-29T00:08:49.920Z,2.03
2019-01-29T00:11:18.209Z,2.45
2019-01-29T00:13:45.976Z,1.67
2019-01-29T00:16:14.876Z,3.27
2019-01-29T00:18:42.544Z,1.40
2019-01-29T00:21:11.517Z,2.10
2019-01-29T00:23:40.365Z,1.95
2019-01-29T00:26:08.785Z,1.60
2019-01-29T00:28:36.179Z,2.53
2019-01-29T00:31:06.613Z,1.63
2019-01-29T00:33:34.272Z,2.20
2019-01-29T00:36:02.896Z,2.20
2019-01-29T00:38:31.373Z,2.57
2019-01-29T00:40:59.290Z,1.70
2019-01-29T00:43:27.811Z,1.93
2019-01-29T00:45:55.578Z,1.35
2019-01-29T00:48:24.695Z,2.15
2019-01-29T00:50:52.599Z,2.50
2019-01-29T00:53:21.386Z,1.93
2019-01-29T00:55:49.462Z,2.03
2019-01-29T00:58:18.773Z,1.40
2019-01-29T01:00:47.468Z,1.40
2019-01-29T01:03:18.580Z,1.50
2019-01-29T01:05:46.469Z,3.20
2019-01-29T01:08:15.487Z,1.60
2019-01-29T01:10:43.790Z,1.47
2019-01-29T01:13:13.894Z,2.73
2019-01-29T01:15:42.946Z,3.25
2019-01-29T01:19:54.216Z,1.30
2019-01-29T01:22:24.215Z,1.45
2019-01-29T01:24:53.615Z,1.50
2019-01-29T01:27:21.529Z,2.17
2019-01-29T01:29:51.257Z,1.35
2019-01-29T01:32:19.779Z,1.40
2019-01-29T01:34:48.139Z,1.40
2019-01-29T01:37:15.907Z,1.50
2019-01-29T01:39:45.939Z,1.30
2019-01-29T01:42:14.908Z,1.40
2019-01-29T01:44:43.740Z,1.45
2019-01-29T01:47:15.867Z,1.30
2019-01-29T01:52:14.996Z,1.23
2019-01-29T01:54:43.529Z,2.25
2019-01-29T01:57:13.670Z,1.50
2019-01-29T01:59:42.845Z,1.55
2019-01-29T02:02:12.541Z,1.82
2019-01-29T02:04:40.545Z,2.45
2019-01-29T02:07:10.617Z,1.95
2019-01-29T02:09:38.509Z,1.93
2019-01-29T02:12:06.418Z,1.20
2019-01-29T02:17:03.815Z,1.57
2019-01-29T02:19:33.516Z,1.30
2019-01-29T02:22:03.440Z,1.37
2019-01-29T02:24:31.837Z,1.80
2019-01-29T02:27:01.130Z,1.85
2019-01-29T02:29:29.409Z,1.10
2019-01-29T02:31:58.260Z,1.77
2019-01-29T02:34:26.898Z,3.10
2019-01-29T02:36:56.095Z,2.27
2019-01-29T02:39:24.577Z,1.13
2019-01-29T02:41:53.517Z,2.30
2019-01-29T02:44:23.181Z,1.60
2019-01-29T02:46:52.495Z,1.40
2019-01-29T02:49:22.637Z,1.40
2019-01-29T02:51:51.065Z,2.10
2019-01-29T02:54:19.846Z,1.10
2019-01-29T02:56:48.674Z,1.35
2019-01-29T02:59:17.830Z,1.30
2019-01-29T03:01:46.533Z,1.65
2019-01-29T03:04:14.907Z,1.10
2019-01-29T03:06:43.960Z,1.30
2019-01-29T03:09:13.421Z,3.72
2019-01-29T03:11:41.505Z,1.47
2019-01-29T03:14:11.842Z,1.35
2019-01-29T03:16:41.276Z,1.70
2019-01-29T03:19:09.798Z,1.67
2019-01-29T03:21:38.991Z,1.67
2019-01-29T03:24:09.563Z,2.80
2019-01-29T03:26:38.496Z,1.40
2019-01-29T03:29:06.857Z,2.00
2019-01-29T03:31:35.447Z,1.53
2019-01-29T03:34:03.669Z,1.33
2019-01-29T03:36:31.562Z,1.45
2019-01-29T03:39:00.078Z,1.50
2019-01-29T03:41:27.694Z,2.30
2019-01-29T03:45:15.567Z,1.30
2019-01-29T03:47:43.848Z,1.10
2019-01-29T03:50:14.536Z,1.40
2019-01-29T03:52:45.683Z,1.40
2019-01-29T03:55:14.823Z,1.10
2019-01-29T03:57:42.923Z,1.57
2019-01-29T04:00:21.781Z,2.17
2019-01-29T04:02:49.385Z,1.20
2019-01-29T04:05:19.197Z,2.20
2019-01-29T04:07:47.093Z,1.80
2019-01-29T04:10:16.221Z,2.30
2019-01-29T04:12:45.479Z,1.60
2019-01-29T04:15:15.459Z,1.70
2019-01-29T04:17:44.764Z,1.57
2019-01-29T04:20:16.562Z,1.50
2019-01-29T04:22:46.071Z,1.40
2019-01-29T04:25:16.261Z,2.10
2019-01-29T04:27:45.724Z,1.60
2019-01-29T04:30:20.325Z,1.22
2019-01-29T04:32:48.653Z,1.45
2019-01-29T04:35:18.023Z,1.30
2019-01-29T04:37:46.643Z,1.92
2019-01-29T04:40:18.681Z,1.60
2019-01-29T04:42:46.342Z,2.40
2019-01-29T04:45:16.919Z,1.60
2019-01-29T04:47:45.452Z,1.50
2019-01-29T04:50:17.567Z,1.63
2019-01-29T04:52:45.445Z,1.70
2019-01-29T04:55:15.531Z,1.40
2019-01-29T04:57:43.261Z,1.30
2019-01-29T05:00:15.919Z,1.40
2019-01-29T05:02:44.447Z,1.20
2019-01-29T05:05:13.258Z,1.12
2019-01-29T05:07:43.555Z,1.30
2019-01-29T05:10:14.024Z,1.60
2019-01-29T05:12:44.965Z,1.40
2019-01-29T05:15:15.750Z,1.50
2019-01-29T05:17:44.754Z,2.23
2019-01-29T05:20:20.315Z,1.50
2019-01-29T05:22:48.302Z,1.40
2019-01-29T05:25:18.435Z,1.40
2019-01-29T05:27:48.358Z,1.80
2019-01-29T05:30:21.201Z,2.67
2019-01-29T05:32:49.546Z,1.40
2019-01-29T05:35:20.861Z,1.70
2019-01-29T05:37:49.971Z,1.25
2019-01-29T05:40:20.071Z,1.40
2019-01-29T05:42:48.434Z,1.80
2019-01-29T05:45:18.744Z,1.50
2019-01-29T05:47:47.405Z,1.23
2019-01-29T05:50:15.899Z,1.40
2019-01-29T05:52:45.721Z,1.70
2019-01-29T05:55:15.843Z,1.50
2019-01-29T05:57:46.412Z,1.50
2019-01-29T06:00:26.844Z,2.00
2019-01-29T06:02:54.989Z,1.90
2019-01-29T06:05:24.742Z,1.60
2019-01-29T06:07:53.529Z,2.25
2019-01-29T06:12:54.253Z,1.10
2019-01-29T06:15:23.819Z,1.50
2019-01-29T06:17:52.897Z,2.10
2019-01-29T06:20:23.349Z,7.30
2019-01-29T06:22:52.546Z,2.20
2019-01-29T06:25:21.864Z,2.20
2019-01-29T06:27:51.552Z,5.97
2019-01-29T06:30:20.926Z,2.13
2019-01-29T06:32:48.829Z,2.43
2019-01-29T06:35:17.670Z,3.00
2019-01-29T06:37:45.813Z,4.60
2019-01-29T06:40:19.808Z,4.60
2019-01-29T06:42:48.052Z,3.60
2019-01-29T06:45:16.662Z,1.60
2019-01-29T06:47:44.557Z,4.20
2019-01-29T06:50:16.362Z,1.43
2019-01-29T06:52:45.965Z,2.10
2019-01-29T06:55:16.920Z,1.37
2019-01-29T06:57:44.899Z,4.00
2019-01-29T07:00:17.272Z,2.10
2019-01-29T07:02:44.980Z,2.10
2019-01-29T07:05:13.600Z,4.55
2019-01-29T07:07:42.766Z,2.00
2019-01-29T07:10:12.932Z,5.70
2019-01-29T07:12:43.289Z,5.00
2019-01-29T07:15:50.971Z,4.25
2019-01-29T07:18:35.591Z,5.30
2019-01-29T07:21:06.955Z,4.30
2019-01-29T07:23:34.989Z,2.75
2019-01-29T07:26:04.681Z,4.80
2019-01-29T07:28:32.527Z,5.60
2019-01-29T07:31:01.921Z,4.63
2019-01-29T07:33:30.550Z,5.20
2019-01-29T07:35:58.686Z,6.67
2019-01-29T07:38:27.550Z,4.50
2019-01-29T07:40:55.663Z,10.10
2019-01-29T07:43:24.700Z,5.10
2019-01-29T07:45:54.586Z,3.70
2019-01-29T07:48:23.516Z,4.70
2019-01-29T07:50:51.903Z,4.15
2019-01-29T07:53:21.030Z,2.40
2019-01-29T07:55:50.516Z,3.97
2019-01-29T07:58:19.090Z,5.97
2019-01-29T08:00:48.117Z,3.92
2019-01-29T08:03:16.682Z,4.10
2019-01-29T08:05:45.593Z,2.30
2019-01-29T08:08:14.274Z,4.70
2019-01-29T08:10:43.601Z,4.00
2019-01-29T08:13:11.687Z,4.20
2019-01-29T08:15:40.798Z,4.55
2019-01-29T08:18:09.273Z,2.10
2019-01-29T08:20:37.893Z,2.80
2019-01-29T08:23:07.274Z,3.83
2019-01-29T08:25:36.297Z,2.10
2019-01-29T08:28:06.115Z,2.90
2019-01-29T08:30:34.923Z,2.17
2019-01-29T08:33:03.479Z,2.35
2019-01-29T08:35:31.664Z,3.45
2019-01-29T08:38:00.210Z,2.90
2019-01-29T08:40:29.794Z,2.97
2019-01-29T08:45:29.386Z,4.05
2019-01-29T08:50:27.852Z,2.40
2019-01-29T08:55:29.800Z,3.45
2019-01-29T09:00:27.745Z,2.50
2019-01-29T09:02:57.371Z,2.90
2019-01-29T09:05:25.481Z,4.20
2019-01-29T09:07:55.787Z,2.87
2019-01-29T09:15:23.336Z,2.30
2019-01-29T09:17:51.892Z,2.30
2019-01-29T09:20:20.855Z,2.75
2019-01-29T09:22:50.002Z,2.50
2019-01-29T09:27:50.741Z,1.77
2019-01-29T09:30:19.666Z,2.85
2019-01-29T09:32:48.803Z,2.20
2019-01-29T09:40:17.910Z,2.40
2019-01-29T09:42:47.799Z,2.40
2019-01-29T09:45:20.068Z,1.60
2019-01-29T09:47:49.804Z,1.50
2019-01-29T09:50:22.389Z,1.60
2019-01-29T09:55:28.953Z,3.25
2019-01-29T10:00:38.940Z,3.50
2019-01-29T10:03:07.345Z,2.85
2019-01-29T10:05:38.411Z,2.10
2019-01-29T10:08:07.345Z,2.15
2019-01-29T10:10:35.785Z,1.50
2019-01-29T10:27:44.701Z,2.00
2019-01-29T10:30:12.698Z,1.60
2019-01-29T10:35:15.823Z,2.00
2019-01-29T10:37:46.739Z,2.15
2019-01-29T10:45:16.929Z,1.80
2019-01-29T10:53:06.903Z,1.40
2019-01-29T10:55:36.665Z,1.50
2019-01-29T10:58:26.324Z,1.50
2019-01-29T11:03:26.041Z,1.90
2019-01-29T11:05:55.307Z,2.03
2019-01-29T11:08:24.795Z,2.57
2019-01-29T11:13:21.667Z,3.00
2019-01-29T11:15:51.347Z,1.75
2019-01-29T11:18:19.786Z,2.35
2019-01-29T11:20:50.044Z,1.70
2019-01-29T11:25:46.428Z,1.60
2019-01-29T11:28:15.030Z,1.55
2019-01-29T11:33:14.358Z,1.17
2019-01-29T11:35:45.773Z,2.47
2019-01-29T11:38:14.784Z,1.70
2019-01-29T11:47:06.509Z,2.00
2019-01-29T11:49:36.722Z,1.30
2019-01-29T11:52:06.057Z,1.40
2019-01-29T11:54:35.454Z,1.60
2019-01-29T11:59:48.659Z,2.33
2019-01-29T12:04:47.776Z,1.60
2019-01-29T12:07:16.900Z,1.40
2019-01-29T12:14:44.585Z,2.97
2019-01-29T12:17:15.011Z,1.50
2019-01-29T12:19:44.842Z,2.60
2019-01-29T12:27:28.554Z,1.40
2019-01-29T12:31:11.049Z,1.60
2019-01-29T12:33:41.401Z,1.42
2019-01-29T12:38:41.752Z,1.70
2019-01-29T12:41:10.731Z,1.90
2019-01-29T12:48:57.688Z,2.40
2019-01-29T12:51:49.046Z,1.45
2019-01-29T12:54:20.307Z,1.50
2019-01-29T12:56:49.368Z,1.30
2019-01-29T12:59:19.718Z,1.30
2019-01-29T13:01:49.734Z,2.10
2019-01-29T13:04:18.826Z,1.50
2019-01-29T13:06:48.510Z,1.73
2019-01-29T13:09:16.929Z,1.40
2019-01-29T13:11:47.746Z,1.65
2019-01-29T13:14:17.050Z,1.20
2019-01-29T13:16:46.884Z,1.80
2019-01-29T13:19:15.668Z,1.53
2019-01-29T13:21:45.356Z,1.10
2019-01-29T13:24:14.388Z,2.07
2019-01-29T13:26:44.339Z,1.40
2019-01-29T13:29:15.635Z,1.40
2019-01-29T13:31:44.957Z,1.43
2019-01-29T13:34:13.764Z,1.20
2019-01-29T13:39:13.887Z,1.60
2019-01-29T13:53:17.530Z,1.20
2019-01-29T13:55:46.043Z,2.10
2019-01-29T13:58:16.554Z,4.15
2019-01-29T14:00:45.733Z,11.00
2019-01-29T14:03:18.658Z,4.20
2019-01-29T14:08:18.771Z,1.60
2019-01-29T14:10:47.762Z,4.97
2019-01-29T14:13:17.742Z,3.10
2019-01-29T14:15:57.615Z,1.55
2019-01-29T14:18:29.823Z,3.20
2019-01-29T14:21:00.150Z,1.55
2019-01-29T14:23:29.090Z,2.60
2019-01-29T14:25:57.024Z,3.20
2019-01-29T14:28:28.004Z,3.20
2019-01-29T14:33:25.383Z,1.60
2019-01-29T14:35:54.004Z,1.50
2019-01-29T14:39:28.754Z,4.33
2019-01-29T14:41:57.711Z,2.20
2019-01-29T14:44:37.592Z,3.67
2019-01-29T14:47:06.765Z,1.90
2019-01-29T14:49:36.230Z,3.20
2019-01-29T14:52:04.974Z,2.10
2019-01-29T14:54:34.030Z,1.65
2019-01-29T14:59:32.020Z,1.60
2019-01-29T15:02:00.654Z,4.30
2019-01-29T15:04:28.930Z,6.30
2019-01-29T15:06:57.662Z,5.30
2019-01-29T15:09:26.321Z,9.20
2019-01-29T15:14:26.658Z,8.20
2019-01-29T15:17:14.914Z,8.20
2019-01-29T15:19:43.548Z,4.70
2019-01-29T15:22:12.832Z,2.85
2019-01-29T15:24:42.077Z,4.05
2019-01-29T15:27:10.586Z,2.60
2019-01-29T15:29:40.380Z,2.20
2019-01-29T15:32:09.043Z,2.80
2019-01-29T15:34:37.735Z,4.50
2019-01-29T15:37:06.080Z,3.70
2019-01-29T15:39:36.024Z,2.80
2019-01-29T15:42:04.587Z,2.15
2019-01-29T15:47:02.788Z,4.43
2019-01-29T15:51:42.709Z,1.70
2019-01-29T15:54:12.216Z,3.90
2019-01-29T15:56:42.502Z,3.95
2019-01-29T15:59:11.035Z,2.40
2019-01-29T16:01:41.841Z,2.70
2019-01-29T16:04:11.173Z,1.60
2019-01-29T16:06:40.785Z,1.60
2019-01-29T16:09:11.644Z,2.40
2019-01-29T16:14:10.013Z,2.55
2019-01-29T16:16:40.795Z,7.00
2019-01-29T16:19:11.084Z,3.00
2019-01-29T16:21:40.971Z,3.90
2019-01-29T16:24:11.675Z,5.90
2019-01-29T16:26:42.756Z,3.60
2019-01-29T16:32:00.726Z,4.30
2019-01-29T16:34:29.054Z,4.80
2019-01-29T16:36:59.668Z,4.35
2019-01-29T16:39:27.684Z,2.60
2019-01-29T16:42:17.644Z,6.50
2019-01-29T16:44:45.995Z,4.00
2019-01-29T16:47:16.600Z,4.70
2019-01-29T16:52:33.897Z,3.50
2019-01-29T16:55:03.877Z,4.00
2019-01-29T16:57:36.787Z,3.25
2019-01-29T17:00:11.652Z,5.57
2019-01-29T17:02:44.767Z,4.00
2019-01-29T17:05:13.471Z,2.20
2019-01-29T17:07:42.451Z,3.60
2019-01-29T17:10:12.983Z,3.00
2019-01-29T17:12:42.964Z,1.90
2019-01-29T17:15:16.646Z,2.00
2019-01-29T17:20:22.676Z,1.70
2019-01-29T17:22:50.937Z,2.87
2019-01-29T17:40:14.988Z,4.22
2019-01-29T17:42:44.360Z,2.97
2019-01-29T17:45:18.716Z,3.30
2019-01-29T17:47:48.838Z,4.10
2019-01-29T17:52:51.079Z,7.20
2019-01-29T17:55:23.177Z,3.60
2019-01-29T17:57:55.684Z,7.55
2019-01-29T18:00:30.885Z,5.90
2019-01-29T18:05:30.128Z,4.30
2019-01-29T18:08:00.362Z,3.57
2019-01-29T18:10:28.755Z,9.13
2019-01-29T18:12:59.226Z,9.40
2019-01-29T18:15:28.553Z,6.20
2019-01-29T18:17:58.316Z,9.15
2019-01-29T18:20:25.611Z,4.90
2019-01-29T18:22:53.142Z,5.70
2019-01-29T18:25:22.762Z,5.05
2019-01-29T18:28:00.618Z,4.65
2019-01-29T18:30:25.026Z,3.27
2019-01-29T18:32:52.576Z,5.27
2019-01-29T18:35:23.350Z,7.03
2019-01-29T18:37:52.014Z,4.00
2019-01-29T18:40:27.205Z,7.40
2019-01-29T18:42:54.850Z,4.83
2019-01-29T18:45:23.742Z,5.40
2019-01-29T18:47:52.512Z,5.70
2019-01-29T18:50:21.408Z,11.47
2019-01-29T18:52:50.278Z,5.00
2019-01-29T18:59:15.715Z,5.90
2019-01-29T19:13:53.004Z,6.40
2019-01-29T19:16:23.916Z,3.80
2019-01-29T19:18:52.763Z,6.90
2019-01-29T19:21:25.374Z,3.70
2019-01-29T19:26:38.585Z,5.05
2019-01-29T19:29:07.691Z,7.77
2019-01-29T19:31:37.634Z,3.37
2019-01-29T19:36:35.785Z,5.45
2019-01-29T19:39:08.183Z,5.60
2019-01-29T19:41:37.358Z,7.45
2019-01-29T19:44:05.961Z,5.85
2019-01-29T19:46:35.840Z,5.83
2019-01-29T19:51:35.972Z,2.95
2019-01-29T19:54:05.821Z,4.50
2019-01-29T19:56:35.989Z,3.35
2019-01-29T19:59:07.468Z,4.17
2019-01-29T20:01:36.842Z,4.00
2019-01-29T20:04:05.717Z,3.70
2019-01-29T20:06:35.688Z,3.10
2019-01-29T20:09:10.824Z,5.05
2019-01-29T20:11:41.042Z,6.40
2019-01-29T20:14:10.552Z,5.10
2019-01-29T20:16:40.943Z,4.80
2019-01-29T20:19:10.394Z,4.40
2019-01-29T20:21:39.661Z,5.80
2019-01-29T20:24:08.357Z,4.80
2019-01-29T20:26:37.700Z,9.10
2019-01-29T20:29:06.756Z,5.20
2019-01-29T20:31:36.955Z,4.75
2019-01-29T20:34:05.764Z,2.85
2019-01-29T20:36:35.066Z,4.35
2019-01-29T20:41:34.266Z,5.50
2019-01-29T20:44:02.761Z,4.95
2019-01-29T20:46:31.743Z,9.30
2019-01-29T20:48:59.939Z,4.00
2019-01-29T20:51:30.018Z,5.20
2019-01-29T20:54:00.292Z,3.65
2019-01-29T20:56:28.676Z,3.65
2019-01-29T21:07:53.343Z,5.35
2019-01-29T21:10:24.584Z,5.30
2019-01-29T21:15:41.754Z,3.90
2019-01-29T21:18:12.775Z,4.20
2019-01-29T21:20:41.714Z,4.40
2019-01-29T21:23:30.295Z,3.65
2019-01-29T21:25:58.914Z,4.30
2019-01-29T21:28:29.875Z,5.10
2019-01-29T21:30:59.368Z,5.90
2019-01-29T21:33:28.878Z,5.50
2019-01-29T21:38:25.905Z,4.50
2019-01-29T21:40:55.875Z,4.90
2019-01-29T21:43:24.651Z,4.20
2019-01-29T21:45:54.758Z,4.73
2019-01-29T21:49:57.538Z,4.40
2019-01-29T21:52:27.638Z,5.95
2019-01-29T21:54:57.068Z,3.60
2019-01-29T21:59:55.988Z,3.50
2019-01-29T22:02:25.360Z,4.20
2019-01-29T22:04:55.729Z,3.25
2019-01-29T22:07:25.741Z,3.17
2019-01-29T22:14:50.017Z,3.33
